Time;durP1;ratioP1;P1;durP2;ratioP2;P2;SDS_P1;SDS_P2;PMS_P1;PMS_P2;Temp;Humidity;BMP_temperature;BMP_pressure;BME280_temperature;BME280_humidity;BME280_pressure;Samples;Min_cycle;Max_cycle;Signal;HPM_P1;HPM_P2
2022/01/19 00:00:47;;;;;;;362.85;25.67;;;7.00;99.90;;;;;;5108977;28;20416;-70
2022/01/19 00:03:14;;;;;;;395.17;26.45;;;7.00;99.90;;;;;;5109818;28;20408;-71
2022/01/19 00:05:40;;;;;;;391.60;26.50;;;7.00;99.90;;;;;;5110560;28;20876;-71
2022/01/19 00:08:06;;;;;;;295.83;25.35;;;7.00;99.90;;;;;;5110291;28;20490;-70
2022/01/19 00:10:32;;;;;;;363.23;25.83;;;7.00;99.90;;;;;;5111894;27;20904;-70
2022/01/19 00:12:59;;;;;;;368.08;26.67;;;7.00;99.90;;;;;;5110092;28;20415;-71
2022/01/19 00:15:26;;;;;;;298.85;24.80;;;7.00;99.90;;;;;;5118348;27;20404;-72
2022/01/19 00:17:55;;;;;;;273.13;24.20;;;7.00;99.90;;;;;;5114983;27;22023;-71
2022/01/19 00:20:21;;;;;;;330.05;24.88;;;7.00;99.90;;;;;;5108888;28;20484;-71
2022/01/19 00:22:47;;;;;;;361.80;24.50;;;7.00;99.90;;;;;;5114570;27;20410;-70
2022/01/19 00:25:13;;;;;;;316.17;24.40;;;7.00;99.90;;;;;;5119100;27;20408;-70
2022/01/19 00:27:39;;;;;;;285.42;24.73;;;6.90;99.90;;;;;;5112740;27;20423;-69
2022/01/19 00:30:06;;;;;;;308.53;23.53;;;6.90;99.90;;;;;;5127296;27;20398;-72
2022/01/19 00:32:33;;;;;;;365.00;24.23;;;6.90;99.90;;;;;;5113035;27;21400;-71
2022/01/19 00:34:58;;;;;;;271.25;23.83;;;6.80;99.90;;;;;;5094058;28;20820;-71
2022/01/19 00:37:24;;;;;;;287.07;24.20;;;6.80;99.90;;;;;;5111930;27;20400;-71
2022/01/19 00:39:51;;;;;;;367.33;25.90;;;6.80;99.90;;;;;;5111811;28;20392;-70
2022/01/19 00:42:17;;;;;;;428.77;23.95;;;6.80;99.90;;;;;;5113784;27;20400;-70
2022/01/19 00:44:42;;;;;;;517.33;24.10;;;6.80;99.90;;;;;;5111215;28;20397;-70
2022/01/19 00:47:08;;;;;;;454.10;24.17;;;6.80;99.90;;;;;;5093200;28;20396;-70
2022/01/19 00:49:34;;;;;;;324.77;24.30;;;6.80;99.90;;;;;;5112218;27;20413;-70
2022/01/19 00:52:00;;;;;;;449.60;25.35;;;6.70;99.90;;;;;;5118102;27;20462;-70
2022/01/19 00:54:26;;;;;;;375.20;25.52;;;6.70;99.90;;;;;;5114927;27;20803;-70
2022/01/19 00:56:52;;;;;;;427.07;26.17;;;6.70;99.90;;;;;;5109406;28;20807;-70
2022/01/19 00:59:17;;;;;;;281.38;25.13;;;6.60;99.90;;;;;;5111301;27;20439;-70
2022/01/19 01:01:43;;;;;;;294.77;25.95;;;6.60;99.90;;;;;;5108533;27;20909;-70
2022/01/19 01:04:09;;;;;;;323.70;26.73;;;6.60;99.90;;;;;;5110089;27;20402;-70
2022/01/19 01:06:35;;;;;;;366.17;26.38;;;6.60;99.90;;;;;;5095629;28;20809;-70
2022/01/19 01:09:01;;;;;;;314.27;26.00;;;6.70;99.90;;;;;;5121112;27;20738;-70
2022/01/19 01:11:35;;;;;;;353.02;26.50;;;6.60;99.90;;;;;;5118900;27;20398;-70
2022/01/19 01:19:02;;;;;;;351.15;26.23;;;6.70;99.90;;;;;;5109717;27;20396;-70
2022/01/19 01:21:29;;;;;;;273.55;26.38;;;6.70;99.90;;;;;;5119239;27;20908;-69
2022/01/19 01:23:55;;;;;;;257.77;25.73;;;6.70;99.90;;;;;;5114250;27;20404;-70
2022/01/19 01:26:20;;;;;;;263.15;23.98;;;6.60;99.90;;;;;;5120682;27;20408;-72
2022/01/19 01:28:46;;;;;;;287.93;24.13;;;6.50;99.90;;;;;;5111074;27;20400;-70
2022/01/19 01:31:12;;;;;;;306.55;24.00;;;6.40;99.90;;;;;;5107549;27;20415;-71
2022/01/19 01:33:39;;;;;;;140.88;24.02;;;6.40;99.90;;;;;;5118656;27;20412;-71
2022/01/19 01:36:06;;;;;;;112.55;24.75;;;6.40;99.90;;;;;;5113716;27;20929;-70
2022/01/19 01:38:32;;;;;;;149.85;23.77;;;6.40;99.90;;;;;;5119332;27;20403;-70
2022/01/19 01:40:58;;;;;;;159.43;23.83;;;6.30;99.90;;;;;;5113509;27;20396;-70
2022/01/19 01:43:25;;;;;;;212.75;25.73;;;6.30;99.90;;;;;;5111675;27;20445;-70
2022/01/19 01:45:55;;;;;;;209.27;25.60;;;6.30;99.90;;;;;;5111626;27;20400;-70
2022/01/19 01:48:24;;;;;;;157.60;25.80;;;6.30;99.90;;;;;;5138525;27;20926;-70
2022/01/19 01:53:43;;;;;;;113.63;25.48;;;6.20;99.90;;;;;;5114312;27;20419;-70
2022/01/19 01:56:11;;;;;;;108.53;24.23;;;6.20;99.90;;;;;;5113592;27;20408;-70
2022/01/19 01:58:43;;;;;;;150.90;22.70;;;6.20;99.90;;;;;;5108363;28;21050;-70
2022/01/19 02:01:25;;;;;;;100.50;23.98;;;6.10;99.90;;;;;;5112814;27;20420;-70
2022/01/19 02:03:51;;;;;;;83.13;20.60;;;6.10;99.90;;;;;;5112208;27;20184;-70
2022/01/19 02:06:29;;;;;;;86.80;19.13;;;5.60;99.90;;;;;;5108113;27;20554;-71
2022/01/19 02:09:17;;;;;;;76.28;19.15;;;5.30;99.90;;;;;;5107451;28;20584;-70
2022/01/19 02:23:12;;;;;;;60.58;24.95;;;5.70;99.90;;;;;;5109219;28;20423;-71
2022/01/19 02:25:42;;;;;;;59.08;25.75;;;5.80;99.90;;;;;;5127822;27;20392;-73
2022/01/19 02:41:39;;;;;;;68.32;28.33;;;5.70;99.90;;;;;;5110709;27;20415;-70
2022/01/19 02:44:09;;;;;;;63.78;27.65;;;5.70;99.90;;;;;;5108881;28;20749;-70
2022/01/19 02:46:54;;;;;;;67.20;28.45;;;5.70;99.90;;;;;;5107219;28;20888;-70
2022/01/19 02:49:21;;;;;;;74.75;28.52;;;5.60;99.90;;;;;;5090590;28;20762;-70
2022/01/19 02:51:50;;;;;;;79.03;29.25;;;5.60;99.90;;;;;;5106278;28;20428;-71
2022/01/19 02:54:22;;;;;;;72.53;28.40;;;5.60;99.90;;;;;;5106083;28;20392;-71
2022/01/19 02:56:52;;;;;;;73.97;30.23;;;5.60;99.90;;;;;;5107213;28;20979;-70
2022/01/19 02:59:29;;;;;;;73.03;30.20;;;5.60;99.90;;;;;;5108892;28;20396;-71
2022/01/19 03:10:08;;;;;;;74.35;31.88;;;5.60;99.90;;;;;;5108610;28;20396;-70
2022/01/19 03:12:34;;;;;;;75.53;32.53;;;5.60;99.90;;;;;;5110043;28;20404;-70
2022/01/19 03:14:59;;;;;;;73.57;31.33;;;5.60;99.90;;;;;;5106982;28;20404;-71
2022/01/19 03:17:26;;;;;;;72.33;32.20;;;5.60;99.90;;;;;;5091015;28;20769;-71
2022/01/19 03:19:52;;;;;;;65.93;30.60;;;5.60;99.90;;;;;;5110706;28;20423;-70
2022/01/19 03:22:21;;;;;;;70.45;31.42;;;5.50;99.90;;;;;;5105796;28;20928;-71
2022/01/19 03:24:50;;;;;;;70.75;31.42;;;5.50;99.90;;;;;;5107720;28;20757;-70
2022/01/19 03:27:17;;;;;;;67.33;30.23;;;5.50;99.90;;;;;;5120103;28;20503;-71
2022/01/19 03:29:45;;;;;;;63.33;30.35;;;5.50;99.90;;;;;;5111854;27;20404;-70
2022/01/19 03:32:12;;;;;;;67.78;30.30;;;5.60;99.90;;;;;;5116624;28;20402;-71
2022/01/19 03:34:40;;;;;;;68.78;31.10;;;5.60;99.90;;;;;;5094906;28;20393;-71
2022/01/19 03:37:07;;;;;;;70.32;31.08;;;5.60;99.90;;;;;;5112837;28;20855;-71
2022/01/19 03:39:33;;;;;;;67.75;31.20;;;5.70;99.90;;;;;;5111493;28;20392;-70
2022/01/19 03:41:59;;;;;;;65.45;30.45;;;5.70;99.90;;;;;;5105730;28;20892;-70
2022/01/19 03:44:26;;;;;;;68.30;30.63;;;5.70;99.90;;;;;;5113622;28;20400;-71
2022/01/19 03:47:00;;;;;;;64.90;31.05;;;5.70;99.90;;;;;;5106436;28;20404;-70
2022/01/19 03:49:29;;;;;;;67.22;30.13;;;5.70;99.90;;;;;;5106030;28;20497;-70
2022/01/19 03:51:59;;;;;;;65.97;30.88;;;5.70;99.90;;;;;;5103639;28;20553;-70
2022/01/19 03:54:29;;;;;;;66.88;31.63;;;5.70;99.90;;;;;;5114938;28;20404;-70
2022/01/19 03:56:55;;;;;;;65.03;31.98;;;5.70;99.90;;;;;;5107665;28;20404;-71
2022/01/19 03:59:21;;;;;;;66.43;32.00;;;5.80;99.90;;;;;;5089982;28;20395;-70
2022/01/19 04:01:47;;;;;;;66.93;31.40;;;5.80;99.90;;;;;;5105156;28;20742;-70
2022/01/19 04:09:25;;;;;;;58.90;29.67;;;5.90;99.90;;;;;;5115259;27;20411;-70
2022/01/19 04:11:53;;;;;;;59.58;29.45;;;6.00;99.90;;;;;;5092649;28;20529;-70
2022/01/19 04:14:22;;;;;;;58.20;29.92;;;6.10;99.90;;;;;;5119403;27;20392;-70
2022/01/19 04:16:49;;;;;;;60.47;30.58;;;6.10;99.90;;;;;;5100073;28;20407;-70
2022/01/19 04:19:33;;;;;;;63.42;30.58;;;6.10;99.90;;;;;;5094203;27;20391;-70
2022/01/19 04:22:04;;;;;;;59.85;30.15;;;6.10;99.90;;;;;;5117450;27;21373;-70
2022/01/19 04:24:32;;;;;;;59.67;31.25;;;6.10;99.90;;;;;;5109280;28;20525;-70
2022/01/19 04:29:58;;;;;;;63.63;31.35;;;6.20;99.90;;;;;;5117155;27;20881;-70
2022/01/19 04:32:33;;;;;;;63.78;31.48;;;6.20;99.90;;;;;;5109327;28;20495;-69
2022/01/19 04:35:03;;;;;;;63.75;31.35;;;6.20;99.90;;;;;;5101291;28;20834;-70
2022/01/19 04:37:41;;;;;;;62.97;31.85;;;6.20;99.90;;;;;;5091075;28;20460;-69
2022/01/19 04:45:59;;;;;;;67.15;32.40;;;6.30;99.90;;;;;;5118145;27;20408;-69
2022/01/19 04:49:03;;;;;;;66.28;32.15;;;6.40;99.90;;;;;;5141834;27;20453;-70
2022/01/19 05:05:11;;;;;;;64.47;32.10;;;6.60;99.90;;;;;;5107739;28;20905;-70
2022/01/19 05:08:10;;;;;;;63.28;31.00;;;6.60;99.90;;;;;;5105252;27;20415;-70
2022/01/19 05:15:54;;;;;;;61.38;30.85;;;6.60;99.90;;;;;;5104534;27;20396;-71
2022/01/19 05:18:22;;;;;;;61.63;30.87;;;6.70;99.90;;;;;;5106534;28;20891;-71
2022/01/19 05:20:49;;;;;;;68.00;31.42;;;6.70;99.90;;;;;;5106297;27;20417;-71
2022/01/19 05:23:33;;;;;;;64.20;30.87;;;6.70;99.90;;;;;;5103506;28;20387;-71
2022/01/19 05:25:59;;;;;;;64.70;31.90;;;6.70;99.90;;;;;;5115012;27;20406;-70
2022/01/19 05:28:33;;;;;;;63.63;31.92;;;6.70;99.90;;;;;;5102840;27;20389;-71
2022/01/19 05:30:59;;;;;;;68.43;32.38;;;6.70;99.90;;;;;;5102440;27;21613;-71
2022/01/19 05:33:25;;;;;;;66.40;32.80;;;6.70;99.90;;;;;;5106180;28;20497;-70
2022/01/19 05:35:50;;;;;;;72.05;34.13;;;6.70;99.90;;;;;;5108427;27;20427;-70
2022/01/19 05:38:51;;;;;;;63.75;33.08;;;6.70;99.90;;;;;;5043718;28;20419;-69
2022/01/19 05:41:39;;;;;;;68.15;33.63;;;6.80;99.90;;;;;;5107732;27;20504;-70
2022/01/19 05:44:07;;;;;;;72.45;34.00;;;6.80;99.90;;;;;;5103798;28;20408;-70
2022/01/19 05:46:34;;;;;;;66.17;33.23;;;6.80;99.90;;;;;;5111511;27;20896;-71
2022/01/19 05:49:01;;;;;;;66.75;33.15;;;6.90;99.90;;;;;;5107836;27;20457;-70
2022/01/19 05:51:27;;;;;;;69.05;34.85;;;6.90;99.90;;;;;;5104933;28;20404;-72
2022/01/19 05:53:53;;;;;;;65.97;34.97;;;6.90;99.90;;;;;;5118226;27;20745;-71
2022/01/19 05:56:19;;;;;;;66.22;33.75;;;6.90;99.90;;;;;;5109143;27;20444;-71
2022/01/19 05:59:00;;;;;;;68.80;34.30;;;6.90;99.90;;;;;;5106843;27;20392;-71
2022/01/19 06:01:26;;;;;;;64.82;33.72;;;6.90;99.90;;;;;;5113945;27;20444;-71
2022/01/19 06:03:52;;;;;;;62.13;33.70;;;7.00;99.90;;;;;;5106232;27;21064;-72
2022/01/19 06:06:51;;;;;;;72.85;35.38;;;7.00;99.90;;;;;;5102988;28;20841;-71
2022/01/19 06:10:00;;;;;;;64.88;34.63;;;7.00;99.90;;;;;;5062488;28;20457;-71
2022/01/19 06:12:27;;;;;;;66.17;34.47;;;7.00;99.90;;;;;;5088448;28;20495;-72
2022/01/19 06:14:54;;;;;;;69.13;35.60;;;7.00;99.90;;;;;;5106662;28;21003;-71
2022/01/19 06:17:20;;;;;;;64.40;34.50;;;7.00;99.90;;;;;;5110488;27;20450;-71
2022/01/19 06:19:48;;;;;;;68.47;35.08;;;7.10;99.90;;;;;;5120481;27;20900;-71
2022/01/19 06:22:16;;;;;;;65.57;34.57;;;7.10;99.90;;;;;;5111596;27;20499;-71
2022/01/19 06:24:42;;;;;;;65.55;35.55;;;7.10;99.90;;;;;;5115537;27;20903;-71
2022/01/19 06:27:08;;;;;;;66.32;35.42;;;7.10;99.90;;;;;;5106204;27;20400;-70
2022/01/19 06:29:34;;;;;;;67.43;36.40;;;7.10;99.90;;;;;;5105355;28;20734;-69
2022/01/19 06:32:00;;;;;;;69.15;35.85;;;7.10;99.90;;;;;;5088678;28;20457;-71
2022/01/19 06:34:26;;;;;;;70.03;36.58;;;7.10;99.90;;;;;;5117837;27;20383;-72
2022/01/19 06:37:27;;;;;;;70.60;36.67;;;7.10;99.90;;;;;;5078802;28;20858;-70
2022/01/19 06:40:05;;;;;;;68.22;37.30;;;7.10;99.90;;;;;;5094640;28;20404;-71
2022/01/19 06:42:31;;;;;;;71.78;36.95;;;7.10;99.90;;;;;;5118875;27;20411;-71
2022/01/19 06:44:57;;;;;;;69.25;37.47;;;7.20;99.90;;;;;;5124214;27;20401;-70
2022/01/19 06:47:24;;;;;;;71.47;37.60;;;7.10;99.90;;;;;;5111856;27;20388;-70
2022/01/19 06:49:49;;;;;;;71.30;38.07;;;7.20;99.90;;;;;;5114298;27;20411;-70
2022/01/19 06:52:24;;;;;;;72.18;38.58;;;7.10;99.90;;;;;;5110948;27;20416;-70
2022/01/19 06:54:50;;;;;;;71.18;37.83;;;7.10;99.90;;;;;;5110684;27;20400;-70
2022/01/19 06:57:16;;;;;;;74.10;38.95;;;7.20;99.90;;;;;;5106784;28;20738;-71
2022/01/19 07:00:00;;;;;;;72.32;37.42;;;7.10;99.90;;;;;;5109085;28;20395;-70
2022/01/19 07:02:42;;;;;;;73.28;39.88;;;7.20;99.90;;;;;;5106996;28;20396;-70
2022/01/19 07:05:27;;;;;;;81.03;40.75;;;7.20;99.90;;;;;;5106912;28;20915;-70
2022/01/19 07:08:18;;;;;;;76.53;41.43;;;7.20;99.90;;;;;;5108760;28;20404;-70
2022/01/19 07:10:44;;;;;;;77.35;42.85;;;7.20;99.90;;;;;;5104475;28;20388;-70
2022/01/19 07:13:10;;;;;;;83.00;43.67;;;7.20;99.90;;;;;;5107045;28;20900;-70
2022/01/19 07:15:36;;;;;;;79.20;43.33;;;7.20;99.90;;;;;;5106198;28;20423;-71
2022/01/19 07:18:03;;;;;;;78.15;42.45;;;7.30;99.90;;;;;;5107021;28;20404;-72
2022/01/19 07:20:30;;;;;;;76.80;43.35;;;7.30;99.90;;;;;;5108643;27;20422;-72
2022/01/19 07:22:56;;;;;;;80.87;42.33;;;7.30;99.90;;;;;;5114326;28;20955;-71
2022/01/19 07:25:22;;;;;;;76.85;43.90;;;7.30;99.90;;;;;;5111383;28;20400;-71
2022/01/19 07:27:48;;;;;;;79.20;43.08;;;7.30;99.90;;;;;;5098329;28;20814;-71
2022/01/19 07:30:14;;;;;;;77.37;43.07;;;7.30;99.90;;;;;;5092436;28;20416;-71
2022/01/19 07:32:42;;;;;;;70.43;40.65;;;7.30;99.90;;;;;;5117214;28;20497;-72
2022/01/19 07:35:09;;;;;;;69.32;39.92;;;7.40;99.90;;;;;;5115471;28;20496;-71
2022/01/19 07:37:37;;;;;;;70.00;40.07;;;7.40;99.90;;;;;;5136857;27;20440;-72
2022/01/19 07:40:03;;;;;;;74.53;43.10;;;7.40;99.90;;;;;;5094704;28;20392;-71
2022/01/19 07:42:29;;;;;;;78.50;43.05;;;7.40;99.90;;;;;;5108392;27;20939;-71
2022/01/19 07:45:06;;;;;;;77.30;42.83;;;7.40;99.90;;;;;;5118503;27;20437;-69
2022/01/19 07:47:46;;;;;;;75.55;44.05;;;7.40;99.90;;;;;;5113236;27;20401;-70
2022/01/19 07:50:12;;;;;;;81.30;44.95;;;7.50;99.90;;;;;;5118098;27;20398;-69
2022/01/19 07:52:53;;;;;;;73.63;41.95;;;7.50;99.90;;;;;;5106221;27;20484;-70
2022/01/19 07:55:21;;;;;;;76.03;42.47;;;7.50;99.90;;;;;;5114337;27;20757;-71
2022/01/19 07:58:16;;;;;;;77.90;43.63;;;7.50;99.90;;;;;;5070693;27;20496;-71
2022/01/19 08:01:08;;;;;;;78.85;42.92;;;7.50;99.90;;;;;;5110382;27;20400;-71
2022/01/19 08:04:00;;;;;;;85.75;45.58;;;7.50;99.90;;;;;;5114591;27;20407;-71
2022/01/19 08:06:29;;;;;;;79.95;45.47;;;7.50;99.90;;;;;;5109773;27;20403;-71
2022/01/19 08:08:57;;;;;;;85.15;47.50;;;7.60;99.90;;;;;;5095128;28;20483;-72
2022/01/19 08:11:23;;;;;;;82.00;46.47;;;7.60;99.90;;;;;;5118996;27;20403;-71
2022/01/19 08:14:08;;;;;;;86.70;47.15;;;7.60;99.90;;;;;;5099407;27;20468;-71
2022/01/19 08:16:33;;;;;;;85.72;46.22;;;7.60;99.90;;;;;;5107638;28;20392;-70
2022/01/19 08:18:59;;;;;;;77.47;43.83;;;7.60;99.90;;;;;;5091326;28;20471;-70
2022/01/19 08:21:25;;;;;;;83.63;44.75;;;7.60;99.90;;;;;;5104962;28;20938;-71
2022/01/19 08:23:57;;;;;;;82.15;45.15;;;7.60;99.90;;;;;;5107087;27;20398;-71
2022/01/19 08:26:23;;;;;;;81.47;44.23;;;7.60;99.90;;;;;;5109445;28;20403;-70
2022/01/19 08:28:53;;;;;;;75.93;43.23;;;7.60;99.90;;;;;;5114978;27;20402;-71
2022/01/19 08:31:19;;;;;;;78.40;45.38;;;7.60;99.90;;;;;;5110193;27;21243;-71
2022/01/19 08:34:21;;;;;;;83.17;45.97;;;7.60;99.90;;;;;;5088107;28;20913;-71
2022/01/19 08:37:08;;;;;;;84.32;47.28;;;7.60;99.90;;;;;;5106862;28;20769;-72
2022/01/19 08:39:45;;;;;;;81.97;47.55;;;7.70;99.90;;;;;;5104511;27;20445;-72
2022/01/19 08:42:11;;;;;;;86.73;49.03;;;7.60;99.90;;;;;;5108247;27;20404;-71
2022/01/19 08:44:38;;;;;;;87.65;48.58;;;7.60;99.90;;;;;;5126016;27;20390;-72
2022/01/19 08:47:15;;;;;;;87.87;49.07;;;7.60;99.90;;;;;;5107615;28;20423;-70
2022/01/19 08:50:10;;;;;;;81.85;47.63;;;7.70;99.90;;;;;;5120166;27;20961;-72
2022/01/19 08:52:47;;;;;;;86.13;47.75;;;7.70;99.90;;;;;;5106324;28;20479;-72
2022/01/19 08:55:25;;;;;;;88.10;48.38;;;7.70;99.90;;;;;;5123732;27;20521;-71
2022/01/19 08:57:51;;;;;;;85.50;47.43;;;7.70;99.90;;;;;;5109159;27;20964;-72
2022/01/19 09:00:18;;;;;;;86.53;47.35;;;7.70;99.90;;;;;;5111753;27;20394;-71
2022/01/19 09:02:44;;;;;;;87.57;47.30;;;7.70;99.90;;;;;;5120319;27;20421;-71
2022/01/19 09:05:10;;;;;;;85.03;47.40;;;7.70;99.90;;;;;;5109672;28;20896;-71
2022/01/19 09:07:36;;;;;;;80.87;45.27;;;7.70;99.90;;;;;;5124871;27;20400;-71
2022/01/19 09:10:03;;;;;;;77.75;45.03;;;7.70;99.90;;;;;;5107917;27;20400;-72
2022/01/19 09:12:28;;;;;;;78.45;45.83;;;7.70;99.90;;;;;;5115106;27;20427;-72
2022/01/19 09:14:54;;;;;;;82.78;46.28;;;7.70;99.90;;;;;;5109833;27;20499;-72
2022/01/19 09:17:20;;;;;;;81.63;44.97;;;7.70;99.90;;;;;;5108607;27;20408;-71
2022/01/19 09:19:45;;;;;;;81.90;44.95;;;7.70;99.90;;;;;;5108984;28;20405;-73
2022/01/19 09:22:11;;;;;;;80.50;44.70;;;7.70;99.90;;;;;;5116769;27;20409;-71
2022/01/19 09:24:39;;;;;;;72.53;42.78;;;7.70;99.90;;;;;;5111229;27;20439;-72
2022/01/19 09:27:08;;;;;;;78.28;43.70;;;7.70;99.90;;;;;;5111672;27;20888;-72
2022/01/19 09:29:38;;;;;;;72.75;42.42;;;7.70;99.90;;;;;;5122149;27;20443;-73
2022/01/19 09:32:11;;;;;;;71.47;40.50;;;7.80;99.90;;;;;;5109874;27;20924;-72
2022/01/19 09:34:42;;;;;;;69.30;40.72;;;7.80;99.90;;;;;;5111173;27;20434;-72
2022/01/19 09:37:08;;;;;;;61.42;37.10;;;7.90;99.90;;;;;;5099448;28;20436;-73
2022/01/19 09:39:34;;;;;;;56.97;32.95;;;7.90;99.90;;;;;;5120030;27;20426;-72
2022/01/19 09:42:00;;;;;;;61.97;33.57;;;7.90;99.90;;;;;;5109690;28;20404;-73
2022/01/19 09:44:29;;;;;;;55.08;30.40;;;7.90;99.90;;;;;;5116697;27;20798;-72
2022/01/19 09:46:55;;;;;;;45.50;26.60;;;8.00;99.90;;;;;;5111843;27;20753;-72
2022/01/19 09:49:21;;;;;;;45.65;24.80;;;8.00;99.90;;;;;;5096850;27;20416;-72
2022/01/19 09:51:50;;;;;;;48.70;24.83;;;8.10;99.90;;;;;;5110061;28;20821;-71
2022/01/19 09:54:18;;;;;;;41.35;22.55;;;8.10;99.90;;;;;;5113526;27;20412;-71
2022/01/19 09:56:44;;;;;;;35.60;20.48;;;8.10;99.90;;;;;;5115719;27;20734;-71
2022/01/19 09:59:13;;;;;;;34.03;17.67;;;8.20;99.90;;;;;;5117353;27;20400;-72
2022/01/19 10:01:48;;;;;;;32.58;17.15;;;8.20;99.90;;;;;;5112077;27;20408;-71
2022/01/19 10:04:22;;;;;;;31.85;16.15;;;8.20;99.90;;;;;;5107707;27;20793;-71
2022/01/19 10:06:47;;;;;;;27.08;13.23;;;8.20;99.90;;;;;;5114736;27;20408;-75
2022/01/19 10:09:22;;;;;;;25.57;13.00;;;8.20;99.90;;;;;;5117717;27;20907;-71
2022/01/19 10:17:04;;;;;;;29.67;9.47;;;8.30;99.90;;;;;;5124613;27;20451;-71
2022/01/19 10:19:39;;;;;;;23.27;8.82;;;8.30;99.90;;;;;;5109463;27;20898;-72
2022/01/19 10:22:13;;;;;;;21.30;8.90;;;8.30;99.90;;;;;;5118864;27;20398;-73
2022/01/19 10:24:41;;;;;;;24.35;8.68;;;8.30;99.90;;;;;;5110141;27;20406;-72
2022/01/19 10:27:28;;;;;;;20.05;7.05;;;8.30;99.90;;;;;;5114644;27;20389;-72
2022/01/19 10:30:17;;;;;;;20.65;6.65;;;8.30;99.90;;;;;;5114923;27;20503;-70
2022/01/19 10:32:56;;;;;;;14.48;4.97;;;8.40;99.90;;;;;;5108759;27;20411;-71
2022/01/19 10:35:36;;;;;;;15.32;5.10;;;8.40;99.90;;;;;;5108595;28;20404;-71
2022/01/19 10:38:06;;;;;;;17.88;4.50;;;8.40;99.90;;;;;;5117695;27;20408;-72
2022/01/19 10:40:33;;;;;;;17.60;4.20;;;8.40;99.90;;;;;;5115602;27;20410;-73
2022/01/19 10:42:59;;;;;;;15.40;4.63;;;8.40;99.90;;;;;;5120268;27;20430;-70
2022/01/19 10:45:31;;;;;;;15.30;5.00;;;8.60;99.90;;;;;;5109901;27;20436;-71
2022/01/19 10:47:57;;;;;;;17.42;4.05;;;8.70;99.90;;;;;;5111088;27;20420;-72
2022/01/19 10:50:28;;;;;;;12.82;3.40;;;8.90;99.90;;;;;;5113126;27;20404;-72
2022/01/19 10:52:56;;;;;;;16.23;3.97;;;9.00;99.90;;;;;;5115780;27;20809;-72
2022/01/19 10:55:39;;;;;;;13.20;4.10;;;9.10;99.90;;;;;;5107469;28;20428;-73
2022/01/19 10:58:15;;;;;;;13.60;3.85;;;9.10;99.90;;;;;;5117078;27;20428;-73
2022/01/19 11:00:48;;;;;;;13.98;3.20;;;9.20;99.90;;;;;;5123792;27;20402;-72
2022/01/19 11:03:17;;;;;;;13.90;3.65;;;9.30;99.90;;;;;;5111084;28;20404;-71
2022/01/19 11:06:00;;;;;;;15.20;3.50;;;9.30;99.90;;;;;;5111826;28;20442;-75
2022/01/19 11:08:27;;;;;;;13.68;3.55;;;9.40;99.90;;;;;;5100544;28;20418;-72
2022/01/19 11:10:55;;;;;;;17.75;3.60;;;9.50;99.90;;;;;;5094878;28;20408;-70
2022/01/19 11:13:40;;;;;;;13.38;3.47;;;9.60;99.90;;;;;;5115469;28;20442;-72
2022/01/19 11:16:06;;;;;;;15.10;3.60;;;9.70;99.90;;;;;;5116292;28;20399;-72
2022/01/19 11:18:35;;;;;;;13.88;3.42;;;9.80;99.90;;;;;;5117467;27;20387;-73
2022/01/19 11:21:24;;;;;;;14.65;3.55;;;10.00;99.90;;;;;;5122814;27;20390;-72
2022/01/19 11:24:08;;;;;;;14.13;3.42;;;10.40;99.10;;;;;;5112978;27;20816;-72
2022/01/19 11:26:35;;;;;;;10.52;3.13;;;10.40;98.30;;;;;;5113009;28;20423;-73
2022/01/19 11:29:18;;;;;;;13.10;3.43;;;10.40;98.00;;;;;;5115962;27;20412;-74
2022/01/19 11:31:44;;;;;;;12.98;3.75;;;10.20;97.90;;;;;;5112118;27;20412;-73
2022/01/19 11:34:10;;;;;;;12.90;3.67;;;10.00;98.10;;;;;;5108773;28;20423;-74
2022/01/19 11:36:42;;;;;;;13.95;3.45;;;9.90;98.50;;;;;;5110723;28;20426;-72
2022/01/19 11:39:14;;;;;;;15.98;3.53;;;9.80;98.80;;;;;;5122440;27;20492;-72
2022/01/19 11:41:50;;;;;;;11.27;3.38;;;9.70;99.10;;;;;;5122681;27;20403;-75
2022/01/19 11:44:20;;;;;;;17.08;3.97;;;9.70;99.20;;;;;;5119404;27;20765;-74
2022/01/19 11:46:50;;;;;;;14.63;3.63;;;9.60;99.60;;;;;;5116376;27;20479;-73
2022/01/19 11:49:37;;;;;;;14.98;3.97;;;9.50;99.40;;;;;;5119982;27;20430;-74
2022/01/19 11:52:04;;;;;;;15.77;3.65;;;9.40;99.50;;;;;;5123541;27;20396;-74
2022/01/19 11:54:33;;;;;;;15.77;3.85;;;9.40;99.80;;;;;;5125291;27;20412;-73
2022/01/19 11:56:58;;;;;;;16.10;3.95;;;9.30;99.90;;;;;;5115496;27;20439;-74
2022/01/19 11:59:53;;;;;;;16.90;3.90;;;9.30;99.90;;;;;;5115011;27;20743;-74
2022/01/19 12:02:41;;;;;;;15.20;3.88;;;9.30;99.90;;;;;;5109192;27;20412;-75
2022/01/19 12:05:10;;;;;;;18.38;4.00;;;9.30;99.90;;;;;;5081349;27;20495;-74
2022/01/19 12:07:40;;;;;;;16.25;4.30;;;9.20;99.90;;;;;;5126944;27;20406;-74
2022/01/19 12:10:12;;;;;;;16.93;4.27;;;9.20;99.90;;;;;;5115962;27;20464;-73
2022/01/19 12:12:45;;;;;;;21.52;4.50;;;9.20;99.90;;;;;;5100974;27;20925;-73
2022/01/19 12:15:47;;;;;;;17.45;4.43;;;9.20;99.90;;;;;;5116208;27;20444;-72
2022/01/19 12:18:37;;;;;;;21.60;4.18;;;9.20;99.90;;;;;;5109338;27;20469;-71
2022/01/19 12:21:04;;;;;;;20.25;4.32;;;9.10;99.90;;;;;;5118008;27;20390;-73
2022/01/19 12:23:35;;;;;;;16.45;4.22;;;9.10;99.90;;;;;;5115154;27;20443;-73
2022/01/19 12:26:02;;;;;;;20.27;4.53;;;9.10;99.90;;;;;;5110771;27;20965;-73
2022/01/19 12:28:38;;;;;;;20.88;4.28;;;9.10;99.90;;;;;;5120125;27;20404;-74
2022/01/19 12:31:22;;;;;;;22.60;4.90;;;9.10;99.90;;;;;;5093121;28;20443;-73
2022/01/19 12:34:08;;;;;;;21.33;5.07;;;9.10;99.90;;;;;;5109521;28;20892;-73
2022/01/19 12:36:50;;;;;;;22.95;5.25;;;9.20;99.90;;;;;;5110779;27;20411;-72
2022/01/19 12:39:25;;;;;;;21.90;5.27;;;9.20;99.90;;;;;;5115534;27;20416;-74
2022/01/19 12:42:07;;;;;;;23.48;5.43;;;9.20;99.90;;;;;;5111441;28;20400;-72
2022/01/19 12:44:51;;;;;;;23.92;5.38;;;9.20;99.90;;;;;;5114443;27;20460;-72
2022/01/19 12:47:26;;;;;;;24.02;5.60;;;9.30;99.90;;;;;;5119824;27;20406;-74
2022/01/19 12:49:59;;;;;;;26.10;5.65;;;9.30;99.90;;;;;;5113771;27;20404;-73
2022/01/19 12:52:27;;;;;;;23.42;5.75;;;9.30;99.90;;;;;;5090575;28;20572;-74
2022/01/19 12:54:54;;;;;;;25.17;5.70;;;9.30;99.90;;;;;;5099566;27;20961;-73
2022/01/19 12:57:20;;;;;;;27.77;6.13;;;9.30;99.90;;;;;;5117801;27;20390;-74
2022/01/19 12:59:49;;;;;;;27.83;6.23;;;9.30;99.90;;;;;;5110998;28;20477;-72
2022/01/19 13:02:17;;;;;;;31.15;7.05;;;9.30;99.90;;;;;;5117769;27;20406;-71
2022/01/19 13:04:47;;;;;;;27.20;6.00;;;9.30;99.90;;;;;;5116844;27;20941;-73
2022/01/19 13:07:17;;;;;;;29.25;6.13;;;9.20;99.90;;;;;;5113366;27;20431;-72
2022/01/19 13:10:26;;;;;;;26.20;6.03;;;9.30;99.90;;;;;;5117012;27;20432;-71
2022/01/19 13:15:20;;;;;;;25.58;6.15;;;9.30;99.90;;;;;;5114413;27;20396;-71
2022/01/19 13:17:49;;;;;;;21.55;6.15;;;9.30;99.90;;;;;;5122308;27;20401;-73
2022/01/19 13:20:21;;;;;;;26.25;6.18;;;9.30;99.90;;;;;;5114352;27;20471;-72
2022/01/19 13:22:49;;;;;;;28.67;6.93;;;9.30;99.90;;;;;;5118349;27;20465;-72
2022/01/19 13:25:26;;;;;;;28.35;6.55;;;9.30;99.90;;;;;;5118668;27;20412;-71
2022/01/19 13:27:55;;;;;;;25.83;6.40;;;9.30;99.90;;;;;;5121860;27;20438;-72
2022/01/19 13:30:23;;;;;;;30.55;7.18;;;9.30;99.90;;;;;;5112482;27;20430;-73
2022/01/19 13:32:48;;;;;;;29.58;7.10;;;9.20;99.90;;;;;;5115327;27;20424;-72
2022/01/19 13:35:15;;;;;;;32.97;7.20;;;9.20;99.90;;;;;;5105715;28;20482;-72
2022/01/19 13:37:54;;;;;;;31.20;7.30;;;9.20;99.90;;;;;;5090930;28;20403;-71
2022/01/19 13:40:23;;;;;;;29.80;7.45;;;9.20;99.90;;;;;;5109341;28;20400;-71
2022/01/19 13:42:58;;;;;;;29.13;7.70;;;9.10;99.90;;;;;;5111374;27;20888;-69
2022/01/19 13:45:49;;;;;;;34.72;8.18;;;9.10;99.90;;;;;;5110294;28;20400;-71
2022/01/19 13:48:28;;;;;;;30.60;7.80;;;9.10;99.90;;;;;;5109072;28;20415;-70
2022/01/19 13:50:57;;;;;;;36.53;8.57;;;9.00;99.90;;;;;;5110834;27;20418;-71
2022/01/19 13:53:35;;;;;;;36.35;8.70;;;9.00;99.90;;;;;;5110494;27;20422;-70
2022/01/19 13:56:03;;;;;;;37.42;9.50;;;9.00;99.90;;;;;;5108481;28;20430;-71
2022/01/19 13:58:37;;;;;;;35.43;9.57;;;9.00;99.90;;;;;;5110262;28;20396;-70
2022/01/19 14:01:08;;;;;;;44.63;10.38;;;8.90;99.90;;;;;;5108416;28;20428;-72
2022/01/19 14:03:47;;;;;;;47.95;10.43;;;8.90;99.90;;;;;;5109989;28;20439;-71
2022/01/19 14:06:21;;;;;;;40.22;10.30;;;8.90;99.90;;;;;;5109385;27;20408;-71
2022/01/19 14:08:47;;;;;;;42.47;11.02;;;9.00;99.90;;;;;;5108316;28;20469;-71
2022/01/19 14:11:26;;;;;;;47.38;11.35;;;8.90;99.90;;;;;;5111627;27;20388;-70
2022/01/19 14:14:25;;;;;;;44.65;11.10;;;9.00;99.90;;;;;;5116156;27;20422;-71
2022/01/19 14:16:53;;;;;;;47.10;11.60;;;9.00;99.90;;;;;;5109721;28;20924;-71
2022/01/19 14:19:24;;;;;;;46.30;11.80;;;9.00;99.90;;;;;;5109979;28;20506;-72
2022/01/19 14:22:13;;;;;;;47.88;13.05;;;9.00;99.90;;;;;;5111809;27;20479;-71